Time,TemperatureF,DewpointF,PressureIn,WindDirection,WindDirectionDegrees,WindSpeedMPH,WindSpeedGustMPH,Humidity,HourlyPrecipIn,Conditions,Clouds,dailyrainin,SoftwareType,DateUTC
2013-11-05 00:11:00,39.0,17.0,30.03,North,350,0.0,4.0,41,0.00,,,0.00,,2013-11-05 08:11:00,
2013-11-05 00:22:00,38.0,16.0,30.03,North,355,0.0,5.0,40,0.00,,,0.00,,2013-11-05 08:22:00,
2013-11-05 00:42:00,38.0,17.0,30.03,North,355,0.0,3.0,42,0.00,,,0.00,,2013-11-05 08:42:00,
2013-11-05 00:52:00,34.0,16.0,30.04,North,355,0.0,1.0,47,0.00,,,0.00,,2013-11-05 08:52:00,
2013-11-05 01:11:00,34.0,16.0,30.04,North,355,0.0,3.0,47,0.00,,,0.00,,2013-11-05 09:11:00,
2013-11-05 01:22:00,38.0,16.0,30.04,North,11,0.0,5.0,40,0.00,,,0.00,,2013-11-05 09:22:00,
2013-11-05 01:43:00,39.0,15.0,30.04,North,355,0.0,7.0,37,0.00,,,0.00,,2013-11-05 09:43:00,
2013-11-05 01:53:00,39.0,14.0,30.04,North,355,1.0,5.0,36,0.00,,,0.00,,2013-11-05 09:53:00,
2013-11-05 02:13:00,40.0,14.0,30.04,North,355,1.0,6.0,34,0.00,,,0.00,,2013-11-05 10:13:00,
2013-11-05 02:23:00,40.0,14.0,30.05,NNW,343,1.0,11.0,34,0.00,,,0.00,,2013-11-05 10:23:00,
2013-11-05 02:42:00,39.0,14.0,30.05,NE,55,0.0,3.0,35,0.00,,,0.00,,2013-11-05 10:42:00,
2013-11-05 02:53:00,38.0,13.0,30.06,North,360,0.0,5.0,36,0.00,,,0.00,,2013-11-05 10:53:00,
2013-11-05 03:12:00,39.0,14.0,30.06,North,360,0.0,6.0,35,0.00,,,0.00,,2013-11-05 11:12:00,
2013-11-05 03:22:00,37.0,14.0,30.06,North,360,0.0,0.0,39,0.00,,,0.00,,2013-11-05 11:22:00,
2013-11-05 03:42:00,36.0,13.0,30.07,NNW,345,0.0,6.0,38,0.00,,,0.00,,2013-11-05 11:42:00,
2013-11-05 03:52:00,37.0,12.0,30.08,NNW,340,0.0,4.0,35,0.00,,,0.00,,2013-11-05 11:52:00,
2013-11-05 04:22:00,38.0,10.0,30.09,NNW,341,0.0,8.0,31,0.00,,,0.00,,2013-11-05 12:22:00,
2013-11-05 04:42:00,38.0,10.0,30.09,North,350,3.0,9.0,31,0.00,,,0.00,,2013-11-05 12:42:00,
2013-11-05 04:52:00,38.0,10.0,30.09,NNW,347,1.0,6.0,31,0.00,,,0.00,,2013-11-05 12:52:00,
2013-11-05 05:11:00,37.0,10.0,30.09,NNW,337,0.0,6.0,32,0.00,,,0.00,,2013-11-05 13:11:00,
2013-11-05 05:21:00,37.0,11.0,30.10,NNW,331,0.0,8.0,33,0.00,,,0.00,,2013-11-05 13:21:00,
2013-11-05 05:42:00,36.0,10.0,30.11,North,350,0.0,3.0,34,0.00,,,0.00,,2013-11-05 13:42:00,
2013-11-05 05:52:00,36.0,10.0,30.11,NNW,348,0.0,4.0,33,0.00,,,0.00,,2013-11-05 13:52:00,
2013-11-05 06:11:00,36.0,10.0,30.12,North,351,0.0,5.0,33,0.00,,,0.00,,2013-11-05 14:11:00,
2013-11-05 06:22:00,37.0,10.0,30.12,NNE,26,0.0,7.0,32,0.00,,,0.00,,2013-11-05 14:22:00,
2013-11-05 06:42:00,37.0,10.0,30.13,NNW,346,0.0,7.0,32,0.00,,,0.00,,2013-11-05 14:42:00,
2013-11-05 06:52:00,37.0,9.0,30.14,North,355,0.0,4.0,31,0.00,,,0.00,,2013-11-05 14:52:00,
2013-11-05 07:11:00,37.0,10.0,30.15,NNW,345,0.0,2.0,32,0.00,,,0.00,,2013-11-05 15:11:00,
2013-11-05 07:21:00,35.0,9.0,30.15,NNW,346,0.0,0.0,34,0.00,,,0.00,,2013-11-05 15:21:00,
2013-11-05 07:53:00,36.0,10.0,30.16,NNW,345,0.0,1.0,34,0.00,,,0.00,,2013-11-05 15:53:00,
2013-11-05 08:13:00,37.0,11.0,30.18,East,79,0.0,5.0,34,0.00,,,0.00,,2013-11-05 16:13:00,
2013-11-05 08:23:00,37.0,12.0,30.18,North,10,0.0,5.0,35,0.00,,,0.00,,2013-11-05 16:23:00,
2013-11-05 08:43:00,38.0,11.0,30.18,NE,42,0.0,4.0,33,0.00,,,0.00,,2013-11-05 16:43:00,
2013-11-05 08:53:00,38.0,11.0,30.19,NNE,17,0.0,3.0,33,0.00,,,0.00,,2013-11-05 16:53:00,
2013-11-05 09:12:00,39.0,12.0,30.20,NNE,33,0.0,2.0,33,0.00,,,0.00,,2013-11-05 17:12:00,
2013-11-05 09:22:00,39.0,12.0,30.21,NNE,33,0.0,2.0,32,0.00,,,0.00,,2013-11-05 17:22:00,
2013-11-05 09:42:00,40.0,12.0,30.20,NE,34,0.0,4.0,31,0.00,,,0.00,,2013-11-05 17:42:00,
2013-11-05 09:52:00,41.0,13.0,30.22,NE,34,0.0,1.0,32,0.00,,,0.00,,2013-11-05 17:52:00,
2013-11-05 10:12:00,41.0,11.0,30.22,NNW,343,0.0,3.0,29,0.00,,,0.00,,2013-11-05 18:12:00,
2013-11-05 10:22:00,42.0,12.0,30.22,SW,225,1.0,7.0,29,0.00,,,0.00,,2013-11-05 18:22:00,
2013-11-05 10:42:00,44.0,12.0,30.22,ENE,59,0.0,3.0,27,0.00,,,0.00,,2013-11-05 18:42:00,
2013-11-05 10:52:00,43.0,11.0,30.22,ESE,119,0.0,7.0,27,0.00,,,0.00,,2013-11-05 18:52:00,
2013-11-05 11:11:00,44.0,12.0,30.22,SSW,196,0.0,5.0,27,0.00,,,0.00,,2013-11-05 19:11:00,
2013-11-05 11:21:00,44.0,11.0,30.22,South,187,0.0,5.0,26,0.00,,,0.00,,2013-11-05 19:21:00,
2013-11-05 11:32:00,44.0,11.0,30.22,South,187,0.0,5.0,26,0.00,,,0.00,,2013-11-05 19:32:00,
2013-11-05 11:52:00,44.0,12.0,30.21,SE,140,0.0,4.0,27,0.00,,,0.00,,2013-11-05 19:52:00,
2013-11-05 12:12:00,45.0,12.0,30.21,South,182,0.0,3.0,26,0.00,,,0.00,,2013-11-05 20:12:00,
2013-11-05 12:22:00,45.0,13.0,30.21,North,11,0.0,1.0,27,0.00,,,0.00,,2013-11-05 20:22:00,
2013-11-05 12:42:00,45.0,13.0,30.20,East,86,0.0,1.0,27,0.00,,,0.00,,2013-11-05 20:42:00,
2013-11-05 12:52:00,45.0,12.0,30.20,NW,313,0.0,1.0,26,0.00,,,0.00,,2013-11-05 20:52:00,
2013-11-05 13:11:00,46.0,13.0,30.20,NW,319,0.0,2.0,26,0.00,,,0.00,,2013-11-05 21:11:00,
2013-11-05 13:21:00,46.0,13.0,30.20,East,87,0.0,3.0,26,0.00,,,0.00,,2013-11-05 21:21:00,
2013-11-05 13:44:00,46.0,13.0,30.20,SSW,205,0.0,1.0,26,0.00,,,0.00,,2013-11-05 21:44:00,
2013-11-05 13:54:00,47.0,12.0,30.20,West,271,0.0,4.0,24,0.00,,,0.00,,2013-11-05 21:54:00,
2013-11-05 14:13:00,46.0,11.0,30.20,ESE,106,0.0,2.0,24,0.00,,,0.00,,2013-11-05 22:13:00,
2013-11-05 14:23:00,46.0,12.0,30.20,NE,42,0.0,1.0,25,0.00,,,0.00,,2013-11-05 22:23:00,
2013-11-05 14:43:00,47.0,11.0,30.20,NE,46,0.0,1.0,23,0.00,,,0.00,,2013-11-05 22:43:00,
2013-11-05 14:53:00,47.0,12.0,30.21,NE,45,0.0,1.0,24,0.00,,,0.00,,2013-11-05 22:53:00,
2013-11-05 15:12:00,46.0,11.0,30.21,NE,46,0.0,1.0,24,0.00,,,0.00,,2013-11-05 23:12:00,
2013-11-05 15:22:00,46.0,10.0,30.22,ESE,107,0.0,4.0,23,0.00,,,0.00,,2013-11-05 23:22:00,
2013-11-05 15:42:00,45.0,10.0,30.22,ESE,123,0.0,1.0,24,0.00,,,0.00,,2013-11-05 23:42:00,
2013-11-05 15:53:00,45.0,10.0,30.22,East,84,0.0,2.0,24,0.00,,,0.00,,2013-11-05 23:53:00,
2013-11-05 16:12:00,44.0,10.0,30.22,East,84,0.0,0.0,24,0.00,,,0.00,,2013-11-06 00:12:00,
2013-11-05 16:21:00,43.0,8.0,30.22,NE,49,0.0,2.0,23,0.00,,,0.00,,2013-11-06 00:21:00,
2013-11-05 16:42:00,43.0,8.0,30.23,NNE,25,0.0,5.0,23,0.00,,,0.00,,2013-11-06 00:42:00,
2013-11-05 16:52:00,43.0,9.0,30.23,North,360,0.0,5.0,24,0.00,,,0.00,,2013-11-06 00:52:00,
2013-11-05 17:11:00,43.0,8.0,30.23,NNE,30,0.0,6.0,23,0.00,,,0.00,,2013-11-06 01:11:00,
2013-11-05 17:21:00,43.0,8.0,30.23,NNW,346,0.0,5.0,23,0.00,,,0.00,,2013-11-06 01:21:00,
2013-11-05 17:42:00,43.0,7.0,30.24,NE,38,0.0,9.0,22,0.00,,,0.00,,2013-11-06 01:42:00,
2013-11-05 17:52:00,43.0,7.0,30.24,NE,54,0.0,5.0,22,0.00,,,0.00,,2013-11-06 01:52:00,
2013-11-05 18:12:00,43.0,8.0,30.24,North,9,0.0,5.0,23,0.00,,,0.00,,2013-11-06 02:12:00,
2013-11-05 18:22:00,43.0,8.0,30.25,NE,38,0.0,7.0,23,0.00,,,0.00,,2013-11-06 02:22:00,
2013-11-05 18:42:00,43.0,8.0,30.25,NNW,327,0.0,6.0,23,0.00,,,0.00,,2013-11-06 02:42:00,
2013-11-05 18:52:00,43.0,8.0,30.26,North,355,0.0,4.0,23,0.00,,,0.00,,2013-11-06 02:52:00,
2013-11-05 19:12:00,42.0,7.0,30.26,North,5,0.0,7.0,23,0.00,,,0.00,,2013-11-06 03:12:00,
2013-11-05 19:22:00,42.0,7.0,30.26,NNE,33,0.0,5.0,23,0.00,,,0.00,,2013-11-06 03:22:00,
2013-11-05 19:43:00,41.0,7.0,30.27,NNE,22,0.0,4.0,24,0.00,,,0.00,,2013-11-06 03:43:00,
2013-11-05 19:54:00,42.0,6.0,30.27,ENE,64,1.0,5.0,22,0.00,,,0.00,,2013-11-06 03:54:00,
2013-11-05 20:13:00,42.0,7.0,30.27,NE,50,0.0,2.0,23,0.00,,,0.00,,2013-11-06 04:13:00,
2013-11-05 20:23:00,41.0,6.0,30.27,NNE,25,0.0,4.0,23,0.00,,,0.00,,2013-11-06 04:23:00,
2013-11-05 20:43:00,40.0,6.0,30.28,NNE,23,0.0,2.0,24,0.00,,,0.00,,2013-11-06 04:43:00,
2013-11-05 20:53:00,40.0,6.0,30.28,NNE,23,0.0,0.0,24,0.00,,,0.00,,2013-11-06 04:53:00,
2013-11-05 21:13:00,41.0,6.0,30.28,NNE,20,0.0,4.0,23,0.00,,,0.00,,2013-11-06 05:13:00,
2013-11-05 21:23:00,40.0,6.0,30.29,NNE,15,0.0,1.0,24,0.00,,,0.00,,2013-11-06 05:23:00,
2013-11-05 21:44:00,39.0,5.0,30.29,NNE,15,0.0,0.0,24,0.00,,,0.00,,2013-11-06 05:44:00,
2013-11-05 21:53:00,42.0,6.0,30.30,North,355,0.0,5.0,22,0.00,,,0.00,,2013-11-06 05:53:00,
2013-11-05 22:13:00,44.0,6.0,30.30,ENE,61,0.0,5.0,20,0.00,,,0.00,,2013-11-06 06:13:00,
2013-11-05 22:22:00,43.0,6.0,30.30,NNE,13,0.0,3.0,21,0.00,,,0.00,,2013-11-06 06:22:00,
2013-11-05 22:42:00,44.0,6.0,30.30,NNE,22,0.0,4.0,20,0.00,,,0.00,,2013-11-06 06:42:00,
2013-11-05 22:52:00,44.0,6.0,30.30,North,360,0.0,6.0,20,0.00,,,0.00,,2013-11-06 06:52:00,
2013-11-05 23:12:00,44.0,6.0,30.30,North,5,0.0,3.0,20,0.00,,,0.00,,2013-11-06 07:12:00,
2013-11-05 23:21:00,45.0,6.0,30.30,North,360,0.0,6.0,20,0.00,,,0.00,,2013-11-06 07:21:00,
2013-11-05 23:42:00,45.0,6.0,30.30,NNW,346,1.0,6.0,20,0.00,,,0.00,,2013-11-06 07:42:00,
2013-11-05 23:52:00,45.0,5.0,30.29,North,5,0.0,3.0,19,0.00,,,0.00,,2013-11-06 07:52:00,